Date,TemperatureHighF,TemperatureAvgF,TemperatureLowF,DewpointHighF,DewpointAvgF,DewpointLowF,HumidityHigh,HumidityAvg,HumidityLow,PressureMaxIn,PressureMinIn,WindSpeedMaxMPH,WindSpeedAvgMPH,GustSpeedMaxMPH,PrecipitationSumIn
2013-3-1,25.9,23.2,19.0,25.2,22.2,17.6,97,96,94,29.83,29.65,0,0,0,0.00
2013-3-2,20.7,17.8,13.3,19.4,16.3,11.5,95,94,92,29.83,29.78,0,0,0,0.00
2013-3-3,17.6,13.4,10.0,16.0,11.6,7.9,94,92,91,29.85,29.77,0,0,0,0.00
2013-3-4,18.5,15.4,12.2,17.1,13.8,10.2,94,93,92,30.01,29.83,1,0,1,0.00
2013-3-5,31.8,22.4,16.7,31.3,21.3,15.3,98,95,93,30.15,30.00,0,0,1,0.00
2013-3-6,26.4,24.3,21.6,25.7,23.4,20.3,97,96,95,30.15,30.02,1,0,1,0.00
2013-3-7,24.1,21.9,19.8,23.2,20.8,18.5,96,95,95,30.21,30.12,0,0,0,0.00
2013-3-8,30.7,23.0,18.9,30.0,22.0,17.4,98,96,94,30.37,30.12,0,0,1,0.00
2013-3-9,37.9,29.2,21.9,31.8,23.6,18.1,96,81,52,30.44,30.35,13,-10,13,0.00
2013-3-10,44.8,37.4,29.3,27.5,22.7,14.5,83,57,29,30.42,30.22,34,6,36,0.00
2013-3-11,45.9,41.9,37.2,36.7,20.8,13.1,94,45,31,30.26,29.98,56,12,56,0.01
2013-3-12,44.8,42.2,39.4,44.2,41.7,38.8,98,98,97,29.99,29.71,48,-7,57,0.94
2013-3-13,29.7,24.9,19.9,25.7,22.2,18.3,96,90,69,29.90,29.78,20,-7,23,0.00
2013-3-14,19.9,13.3,8.4,18.3,9.6,4.8,93,85,78,29.88,29.83,39,13,45,0.01
2013-3-15,24.4,23.6,21.4,22.1,19.9,17.8,93,86,77,29.83,29.77,41,16,45,0.00
2013-3-16,24.8,18.5,12.0,19.8,13.4,8.2,93,81,55,29.97,29.83,29,5,36,0.00
2013-3-17,20.5,14.9,8.8,14.0,7.4,2.5,92,73,50,30.39,29.97,26,9,32,0.00
2013-3-18,23.9,16.5,10.2,21.0,5.5,-5.4,94,64,34,30.47,30.04,62,10,62,0.00
2013-3-19,28.2,24.6,17.8,27.5,23.3,16.2,97,95,91,30.07,29.75,60,12,64,0.01
2013-3-20,23.5,17.8,14.4,17.8,15.0,12.0,94,89,70,29.90,29.78,0,0,0,0.01
2013-3-21,23.5,16.4,11.5,14.9,9.3,5.0,92,75,49,29.88,29.72,24,3,24,0.00
2013-3-22,22.3,17.9,13.5,17.6,14.1,7.2,91,85,74,29.91,29.74,36,12,36,0.00
2013-3-23,26.4,21.5,19.0,18.1,16.0,13.1,93,80,61,29.96,29.82,38,16,46,0.00
2013-3-24,30.6,23.2,18.9,19.9,17.5,14.9,89,79,61,29.98,29.83,28,8,32,0.00
2013-3-25,29.7,25.4,21.7,22.1,20.1,17.8,86,80,68,29.83,29.58,23,7,26,0.01
2013-3-26,32.5,26.7,24.1,25.7,21.5,16.3,95,82,54,29.93,29.68,22,7,22,0.00
2013-3-27,35.2,28.2,23.4,23.5,20.6,16.2,90,74,51,30.03,29.91,29,10,29,0.01
2013-3-28,30.6,27.1,24.4,28.4,25.1,23.0,96,92,81,30.21,30.00,25,8,28,0.00
2013-3-29,33.4,28.9,26.4,26.2,24.7,23.2,93,84,72,30.21,30.15,25,9,27,0.00
2013-3-30,40.3,32.7,26.8,26.1,21.4,15.8,92,66,39,30.22,30.17,19,7,23,0.00
2013-3-31,40.8,35.1,31.8,32.0,23.1,15.1,97,64,43,30.19,29.71,48,15,48,0.00